Terminal Aerodrome Forecast
Issued by NWS Greer, SC

Home | Current Version | Previous Version | Text Only | Print | Product List | Glossary On
Versions: 1 2 3 4 5 6 7 8 9 10 11 12 13 14 15 16 17 18 19 20 21 22 23 24 25 26 27 28 29 30 31 32 33 34 35 36 37 38 39 40 41 42 43 44 45
000
FTUS42 KGSP 182300
TAFAVL
TAF
KAVL 182334Z 1900/1924 12004KT P6SM OVC050
     FM190500 00000KT 5SM BR BKN030
     FM191000 00000KT 2SM BR BKN008
     FM191400 00000KT 5SM BR BKN017
     FM191500 15004KT P6SM BKN023
     FM192100 14007KT P6SM SCT026 BKN035 PROB30 1921/1924 4SM TSRA
      BKN016CB=

USA.gov is the U.S. government's official web portal to all federal, state and local government web resources and services.